sensor_id;sensor_type;location;lat;lon;timestamp;temperature;humidity
12907;DHT22;6521;50.498;8.474;2022-10-28T00:02:14;12.95;92.80
12907;DHT22;6521;50.498;8.474;2022-10-28T00:04:45;12.93;92.94
12907;DHT22;6521;50.498;8.474;2022-10-28T00:07:16;12.91;92.68
12907;DHT22;6521;50.498;8.474;2022-10-28T00:09:46;12.85;92.51
12907;DHT22;6521;50.498;8.474;2022-10-28T00:12:17;12.82;92.70
12907;DHT22;6521;50.498;8.474;2022-10-28T00:14:48;12.79;92.67
12907;DHT22;6521;50.498;8.474;2022-10-28T00:17:19;12.76;92.82
12907;DHT22;6521;50.498;8.474;2022-10-28T00:19:49;12.78;92.91
12907;DHT22;6521;50.498;8.474;2022-10-28T00:22:20;12.78;92.93
12907;DHT22;6521;50.498;8.474;2022-10-28T00:24:51;12.81;92.88
12907;DHT22;6521;50.498;8.474;2022-10-28T00:27:22;12.82;92.96
12907;DHT22;6521;50.498;8.474;2022-10-28T00:29:53;12.81;92.99
12907;DHT22;6521;50.498;8.474;2022-10-28T00:32:23;12.82;92.81
12907;DHT22;6521;50.498;8.474;2022-10-28T00:34:54;12.78;92.63
12907;DHT22;6521;50.498;8.474;2022-10-28T00:37:25;12.75;92.77
12907;DHT22;6521;50.498;8.474;2022-10-28T00:39:55;12.72;92.72
12907;DHT22;6521;50.498;8.474;2022-10-28T00:42:26;12.72;92.94
12907;DHT22;6521;50.498;8.474;2022-10-28T00:44:59;12.69;92.95
12907;DHT22;6521;50.498;8.474;2022-10-28T00:47:41;12.68;92.83
12907;DHT22;6521;50.498;8.474;2022-10-28T00:53:22;12.66;93.65
12907;DHT22;6521;50.498;8.474;2022-10-28T00:55:55;12.66;93.51
12907;DHT22;6521;50.498;8.474;2022-10-28T00:58:27;12.66;93.83
12907;DHT22;6521;50.498;8.474;2022-10-28T01:00:58;12.68;94.16
12907;DHT22;6521;50.498;8.474;2022-10-28T01:03:30;12.69;94.14
12907;DHT22;6521;50.498;8.474;2022-10-28T01:06:00;12.75;94.35
12907;DHT22;6521;50.498;8.474;2022-10-28T01:08:31;12.76;94.22
12907;DHT22;6521;50.498;8.474;2022-10-28T01:22:26;12.96;94.68
12907;DHT22;6521;50.498;8.474;2022-10-28T01:37:01;13.06;94.33
12907;DHT22;6521;50.498;8.474;2022-10-28T01:39:40;13.07;94.35
12907;DHT22;6521;50.498;8.474;2022-10-28T01:45:18;13.10;94.28
12907;DHT22;6521;50.498;8.474;2022-10-28T01:50:34;13.07;94.29
12907;DHT22;6521;50.498;8.474;2022-10-28T01:53:10;13.09;94.27
12907;DHT22;6521;50.498;8.474;2022-10-28T01:55:45;13.10;94.21
12907;DHT22;6521;50.498;8.474;2022-10-28T01:58:20;13.10;94.25
12907;DHT22;6521;50.498;8.474;2022-10-28T02:00:53;13.13;94.18
12907;DHT22;6521;50.498;8.474;2022-10-28T02:03:24;13.12;94.20
12907;DHT22;6521;50.498;8.474;2022-10-28T02:05:56;13.16;94.16
12907;DHT22;6521;50.498;8.474;2022-10-28T02:14:22;13.17;94.12
12907;DHT22;6521;50.498;8.474;2022-10-28T02:17:18;13.17;94.11
12907;DHT22;6521;50.498;8.474;2022-10-28T02:22:50;13.13;94.13
12907;DHT22;6521;50.498;8.474;2022-10-28T02:25:29;13.17;94.29
12907;DHT22;6521;50.498;8.474;2022-10-28T02:28:09;13.19;94.40
12907;DHT22;6521;50.498;8.474;2022-10-28T02:30:49;13.20;94.44
12907;DHT22;6521;50.498;8.474;2022-10-28T02:33:24;13.23;94.46
12907;DHT22;6521;50.498;8.474;2022-10-28T02:36:08;13.22;94.45
12907;DHT22;6521;50.498;8.474;2022-10-28T02:38:47;13.26;94.59
12907;DHT22;6521;50.498;8.474;2022-10-28T02:41:26;13.28;94.55
12907;DHT22;6521;50.498;8.474;2022-10-28T02:44:06;13.30;94.58
12907;DHT22;6521;50.498;8.474;2022-10-28T02:46:40;13.30;94.56
12907;DHT22;6521;50.498;8.474;2022-10-28T02:49:13;13.26;94.53
12907;DHT22;6521;50.498;8.474;2022-10-28T02:51:50;13.27;94.54
12907;DHT22;6521;50.498;8.474;2022-10-28T02:54:26;13.26;94.46
12907;DHT22;6521;50.498;8.474;2022-10-28T02:57:06;13.27;94.43
12907;DHT22;6521;50.498;8.474;2022-10-28T02:59:39;13.24;94.36
12907;DHT22;6521;50.498;8.474;2022-10-28T03:02:09;13.27;94.27
12907;DHT22;6521;50.498;8.474;2022-10-28T03:04:40;13.27;94.36
12907;DHT22;6521;50.498;8.474;2022-10-28T03:07:11;13.26;94.47
12907;DHT22;6521;50.498;8.474;2022-10-28T03:09:42;13.26;94.59
12907;DHT22;6521;50.498;8.474;2022-10-28T03:12:12;13.26;94.71
12907;DHT22;6521;50.498;8.474;2022-10-28T03:14:43;13.27;94.91
12907;DHT22;6521;50.498;8.474;2022-10-28T03:17:14;13.27;94.87
12907;DHT22;6521;50.498;8.474;2022-10-28T03:19:45;13.22;94.97
12907;DHT22;6521;50.498;8.474;2022-10-28T03:22:15;13.22;95.07
12907;DHT22;6521;50.498;8.474;2022-10-28T03:24:46;13.22;95.07
12907;DHT22;6521;50.498;8.474;2022-10-28T03:27:17;13.23;95.08
12907;DHT22;6521;50.498;8.474;2022-10-28T03:29:48;13.20;95.06
12907;DHT22;6521;50.498;8.474;2022-10-28T03:32:18;13.23;95.15
12907;DHT22;6521;50.498;8.474;2022-10-28T03:34:49;13.23;95.15
12907;DHT22;6521;50.498;8.474;2022-10-28T03:37:20;13.26;95.09
12907;DHT22;6521;50.498;8.474;2022-10-28T03:39:51;13.27;95.23
12907;DHT22;6521;50.498;8.474;2022-10-28T03:42:21;13.33;95.13
12907;DHT22;6521;50.498;8.474;2022-10-28T03:44:52;13.33;95.20
12907;DHT22;6521;50.498;8.474;2022-10-28T03:47:23;13.33;95.19
12907;DHT22;6521;50.498;8.474;2022-10-28T03:49:53;13.36;95.23
12907;DHT22;6521;50.498;8.474;2022-10-28T03:52:24;13.39;95.29
12907;DHT22;6521;50.498;8.474;2022-10-28T03:54:55;13.40;95.22
12907;DHT22;6521;50.498;8.474;2022-10-28T03:57:29;13.39;95.15
12907;DHT22;6521;50.498;8.474;2022-10-28T04:00:01;13.37;95.12
12907;DHT22;6521;50.498;8.474;2022-10-28T04:02:47;13.34;95.07
12907;DHT22;6521;50.498;8.474;2022-10-28T04:05:19;13.33;94.99
12907;DHT22;6521;50.498;8.474;2022-10-28T04:07:50;13.34;94.78
12907;DHT22;6521;50.498;8.474;2022-10-28T04:10:22;13.26;94.76
12907;DHT22;6521;50.498;8.474;2022-10-28T04:12:52;13.30;94.68
12907;DHT22;6521;50.498;8.474;2022-10-28T04:15:28;13.27;94.23
12907;DHT22;6521;50.498;8.474;2022-10-28T04:17:59;13.13;94.20
12907;DHT22;6521;50.498;8.474;2022-10-28T04:20:30;13.09;94.24
12907;DHT22;6521;50.498;8.474;2022-10-28T04:23:01;13.00;94.43
12907;DHT22;6521;50.498;8.474;2022-10-28T04:25:32;12.95;94.61
12907;DHT22;6521;50.498;8.474;2022-10-28T04:28:03;12.93;94.78
12907;DHT22;6521;50.498;8.474;2022-10-28T04:30:34;12.92;94.87
12907;DHT22;6521;50.498;8.474;2022-10-28T04:33:05;12.95;94.92
12907;DHT22;6521;50.498;8.474;2022-10-28T04:35:35;12.95;95.00
12907;DHT22;6521;50.498;8.474;2022-10-28T04:38:09;12.95;94.92
12907;DHT22;6521;50.498;8.474;2022-10-28T04:40:40;12.96;94.84
12907;DHT22;6521;50.498;8.474;2022-10-28T04:43:11;12.95;94.87
12907;DHT22;6521;50.498;8.474;2022-10-28T04:45:42;12.95;95.30
12907;DHT22;6521;50.498;8.474;2022-10-28T04:48:12;12.93;95.41
12907;DHT22;6521;50.498;8.474;2022-10-28T04:50:44;12.93;95.30
12907;DHT22;6521;50.498;8.474;2022-10-28T04:53:15;12.92;95.25
12907;DHT22;6521;50.498;8.474;2022-10-28T04:55:45;12.92;95.29
12907;DHT22;6521;50.498;8.474;2022-10-28T04:58:16;12.92;95.25
12907;DHT22;6521;50.498;8.474;2022-10-28T05:00:47;12.93;95.23
12907;DHT22;6521;50.498;8.474;2022-10-28T05:03:18;12.89;95.15
12907;DHT22;6521;50.498;8.474;2022-10-28T05:05:48;12.86;95.16
12907;DHT22;6521;50.498;8.474;2022-10-28T05:08:19;12.82;95.14
12907;DHT22;6521;50.498;8.474;2022-10-28T05:10:50;12.82;95.11
12907;DHT22;6521;50.498;8.474;2022-10-28T05:13:21;12.78;94.97
12907;DHT22;6521;50.498;8.474;2022-10-28T05:15:51;12.75;95.15
12907;DHT22;6521;50.498;8.474;2022-10-28T05:18:22;12.75;95.38
12907;DHT22;6521;50.498;8.474;2022-10-28T05:20:53;12.76;95.52
12907;DHT22;6521;50.498;8.474;2022-10-28T05:23:24;12.78;95.51
12907;DHT22;6521;50.498;8.474;2022-10-28T05:25:55;12.79;95.43
12907;DHT22;6521;50.498;8.474;2022-10-28T05:28:26;12.75;95.49
12907;DHT22;6521;50.498;8.474;2022-10-28T05:30:56;12.75;95.64
12907;DHT22;6521;50.498;8.474;2022-10-28T05:33:27;12.75;95.63
12907;DHT22;6521;50.498;8.474;2022-10-28T05:35:59;12.73;95.59
12907;DHT22;6521;50.498;8.474;2022-10-28T05:38:30;12.71;95.46
12907;DHT22;6521;50.498;8.474;2022-10-28T05:41:00;12.68;95.32
12907;DHT22;6521;50.498;8.474;2022-10-28T05:43:32;12.65;95.15
12907;DHT22;6521;50.498;8.474;2022-10-28T05:46:03;12.59;95.13
12907;DHT22;6521;50.498;8.474;2022-10-28T05:48:34;12.54;95.06
12907;DHT22;6521;50.498;8.474;2022-10-28T05:51:05;12.48;94.95
12907;DHT22;6521;50.498;8.474;2022-10-28T05:53:36;12.44;94.97
12907;DHT22;6521;50.498;8.474;2022-10-28T05:56:07;12.37;94.89
12907;DHT22;6521;50.498;8.474;2022-10-28T05:58:38;12.37;95.02
12907;DHT22;6521;50.498;8.474;2022-10-28T06:01:09;12.30;95.10
12907;DHT22;6521;50.498;8.474;2022-10-28T06:03:39;12.24;95.05
12907;DHT22;6521;50.498;8.474;2022-10-28T06:06:10;12.20;94.89
12907;DHT22;6521;50.498;8.474;2022-10-28T06:08:41;12.14;94.83
12907;DHT22;6521;50.498;8.474;2022-10-28T06:11:12;12.10;94.98
12907;DHT22;6521;50.498;8.474;2022-10-28T06:13:42;12.07;95.00
12907;DHT22;6521;50.498;8.474;2022-10-28T06:16:13;12.01;94.92
12907;DHT22;6521;50.498;8.474;2022-10-28T06:18:44;11.97;94.95
12907;DHT22;6521;50.498;8.474;2022-10-28T06:21:15;11.98;95.10
12907;DHT22;6521;50.498;8.474;2022-10-28T06:23:46;11.93;94.97
12907;DHT22;6521;50.498;8.474;2022-10-28T06:26:18;11.90;94.97
12907;DHT22;6521;50.498;8.474;2022-10-28T06:28:49;11.85;95.05
12907;DHT22;6521;50.498;8.474;2022-10-28T06:31:19;11.89;95.24
12907;DHT22;6521;50.498;8.474;2022-10-28T06:33:50;11.90;95.24
12907;DHT22;6521;50.498;8.474;2022-10-28T06:36:21;11.93;95.53
12907;DHT22;6521;50.498;8.474;2022-10-28T06:38:52;11.97;95.39
12907;DHT22;6521;50.498;8.474;2022-10-28T06:41:23;12.00;95.40
12907;DHT22;6521;50.498;8.474;2022-10-28T06:43:53;12.06;95.32
12907;DHT22;6521;50.498;8.474;2022-10-28T06:46:24;12.07;95.38
12907;DHT22;6521;50.498;8.474;2022-10-28T06:48:55;12.14;95.44
12907;DHT22;6521;50.498;8.474;2022-10-28T06:51:26;12.23;95.54
12907;DHT22;6521;50.498;8.474;2022-10-28T06:53:57;12.31;95.65
12907;DHT22;6521;50.498;8.474;2022-10-28T06:56:28;12.38;95.60
12907;DHT22;6521;50.498;8.474;2022-10-28T06:58:59;12.41;95.79
12907;DHT22;6521;50.498;8.474;2022-10-28T07:01:29;12.48;95.79
12907;DHT22;6521;50.498;8.474;2022-10-28T07:04:00;12.51;95.64
12907;DHT22;6521;50.498;8.474;2022-10-28T07:06:31;12.58;95.52
12907;DHT22;6521;50.498;8.474;2022-10-28T07:09:01;12.59;95.51
12907;DHT22;6521;50.498;8.474;2022-10-28T07:11:32;12.61;95.49
12907;DHT22;6521;50.498;8.474;2022-10-28T07:14:03;12.65;95.59
12907;DHT22;6521;50.498;8.474;2022-10-28T07:16:34;12.68;95.66
12907;DHT22;6521;50.498;8.474;2022-10-28T07:19:04;12.72;95.77
12907;DHT22;6521;50.498;8.474;2022-10-28T07:21:35;12.81;95.69
12907;DHT22;6521;50.498;8.474;2022-10-28T07:24:06;12.86;95.67
12907;DHT22;6521;50.498;8.474;2022-10-28T07:26:37;12.89;95.66
12907;DHT22;6521;50.498;8.474;2022-10-28T07:29:07;12.93;95.63
12907;DHT22;6521;50.498;8.474;2022-10-28T07:31:38;12.97;95.61
12907;DHT22;6521;50.498;8.474;2022-10-28T07:34:09;13.00;95.66
12907;DHT22;6521;50.498;8.474;2022-10-28T07:36:39;13.04;95.71
12907;DHT22;6521;50.498;8.474;2022-10-28T07:39:10;13.04;95.77
12907;DHT22;6521;50.498;8.474;2022-10-28T07:41:41;12.99;95.51
12907;DHT22;6521;50.498;8.474;2022-10-28T07:44:12;13.03;95.61
12907;DHT22;6521;50.498;8.474;2022-10-28T07:46:43;13.04;95.51
12907;DHT22;6521;50.498;8.474;2022-10-28T07:49:13;13.04;95.31
12907;DHT22;6521;50.498;8.474;2022-10-28T07:51:44;13.00;95.11
12907;DHT22;6521;50.498;8.474;2022-10-28T07:54:15;12.99;95.24
12907;DHT22;6521;50.498;8.474;2022-10-28T07:56:46;13.02;95.09
12907;DHT22;6521;50.498;8.474;2022-10-28T07:59:17;13.02;95.12
12907;DHT22;6521;50.498;8.474;2022-10-28T08:01:50;13.07;95.25
12907;DHT22;6521;50.498;8.474;2022-10-28T08:04:21;13.13;95.37
12907;DHT22;6521;50.498;8.474;2022-10-28T08:06:51;13.19;95.40
12907;DHT22;6521;50.498;8.474;2022-10-28T08:09:22;13.19;95.36
12907;DHT22;6521;50.498;8.474;2022-10-28T08:11:55;13.28;95.36
12907;DHT22;6521;50.498;8.474;2022-10-28T08:14:26;13.33;95.33
12907;DHT22;6521;50.498;8.474;2022-10-28T08:16:57;13.36;95.39
12907;DHT22;6521;50.498;8.474;2022-10-28T08:19:27;13.43;95.57
12907;DHT22;6521;50.498;8.474;2022-10-28T08:21:58;13.53;95.62
12907;DHT22;6521;50.498;8.474;2022-10-28T08:24:29;13.67;95.80
12907;DHT22;6521;50.498;8.474;2022-10-28T08:27:00;13.79;95.79
12907;DHT22;6521;50.498;8.474;2022-10-28T08:29:30;13.95;95.64
12907;DHT22;6521;50.498;8.474;2022-10-28T08:32:01;14.04;95.26
12907;DHT22;6521;50.498;8.474;2022-10-28T08:34:32;14.12;95.04
12907;DHT22;6521;50.498;8.474;2022-10-28T08:37:03;14.15;94.95
12907;DHT22;6521;50.498;8.474;2022-10-28T08:39:34;14.18;94.85
12907;DHT22;6521;50.498;8.474;2022-10-28T08:47:52;14.49;94.49
12907;DHT22;6521;50.498;8.474;2022-10-28T08:50:25;14.67;94.16
12907;DHT22;6521;50.498;8.474;2022-10-28T08:53:05;14.80;93.75
12907;DHT22;6521;50.498;8.474;2022-10-28T08:55:44;14.95;93.88
12907;DHT22;6521;50.498;8.474;2022-10-28T08:58:22;15.04;93.78
12907;DHT22;6521;50.498;8.474;2022-10-28T09:00:57;15.21;93.24
12907;DHT22;6521;50.498;8.474;2022-10-28T09:03:36;15.29;93.19
12907;DHT22;6521;50.498;8.474;2022-10-28T09:06:09;15.39;93.14
12907;DHT22;6521;50.498;8.474;2022-10-28T09:08:42;15.45;92.76
12907;DHT22;6521;50.498;8.474;2022-10-28T09:14:41;15.55;92.76
12907;DHT22;6521;50.498;8.474;2022-10-28T09:17:39;15.62;92.87
12907;DHT22;6521;50.498;8.474;2022-10-28T09:20:20;15.74;92.68
12907;DHT22;6521;50.498;8.474;2022-10-28T09:22:56;15.86;92.57
12907;DHT22;6521;50.498;8.474;2022-10-28T09:25:39;15.96;92.50
12907;DHT22;6521;50.498;8.474;2022-10-28T09:31:39;16.22;92.16
12907;DHT22;6521;50.498;8.474;2022-10-28T09:37:18;16.42;91.89
12907;DHT22;6521;50.498;8.474;2022-10-28T09:39:54;16.51;91.50
12907;DHT22;6521;50.498;8.474;2022-10-28T09:42:29;16.59;91.23
12907;DHT22;6521;50.498;8.474;2022-10-28T09:45:04;16.64;91.09
12907;DHT22;6521;50.498;8.474;2022-10-28T09:47:39;16.66;90.65
12907;DHT22;6521;50.498;8.474;2022-10-28T09:50:14;16.69;90.55
12907;DHT22;6521;50.498;8.474;2022-10-28T09:55:36;16.79;90.45
12907;DHT22;6521;50.498;8.474;2022-10-28T09:58:09;16.83;90.74
12907;DHT22;6521;50.498;8.474;2022-10-28T10:00:41;16.95;90.74
12907;DHT22;6521;50.498;8.474;2022-10-28T10:03:14;17.17;91.24
12907;DHT22;6521;50.498;8.474;2022-10-28T10:05:49;17.88;92.17
12907;DHT22;6521;50.498;8.474;2022-10-28T10:08:21;18.32;88.09
12907;DHT22;6521;50.498;8.474;2022-10-28T10:10:58;18.37;86.78
12907;DHT22;6521;50.498;8.474;2022-10-28T10:13:34;18.40;85.67
12907;DHT22;6521;50.498;8.474;2022-10-28T10:16:16;18.42;85.15
12907;DHT22;6521;50.498;8.474;2022-10-28T10:18:50;18.49;85.81
12907;DHT22;6521;50.498;8.474;2022-10-28T10:21:45;19.05;86.37
12907;DHT22;6521;50.498;8.474;2022-10-28T10:24:24;19.62;83.53
12907;DHT22;6521;50.498;8.474;2022-10-28T10:29:44;20.08;80.41
12907;DHT22;6521;50.498;8.474;2022-10-28T10:32:17;20.35;78.85
12907;DHT22;6521;50.498;8.474;2022-10-28T10:37:58;21.11;76.71
12907;DHT22;6521;50.498;8.474;2022-10-28T10:40:33;21.53;76.34
12907;DHT22;6521;50.498;8.474;2022-10-28T10:48:31;22.37;72.12
12907;DHT22;6521;50.498;8.474;2022-10-28T10:51:09;22.64;69.56
12907;DHT22;6521;50.498;8.474;2022-10-28T10:53:47;22.53;68.53
12907;DHT22;6521;50.498;8.474;2022-10-28T10:56:27;22.40;69.38
12907;DHT22;6521;50.498;8.474;2022-10-28T10:59:02;22.44;69.34
12907;DHT22;6521;50.498;8.474;2022-10-28T11:01:35;22.37;69.44
12907;DHT22;6521;50.498;8.474;2022-10-28T11:04:15;22.13;69.57
12907;DHT22;6521;50.498;8.474;2022-10-28T11:06:55;21.86;70.38
12907;DHT22;6521;50.498;8.474;2022-10-28T11:09:34;21.66;71.21
12907;DHT22;6521;50.498;8.474;2022-10-28T11:12:30;21.41;72.05
12907;DHT22;6521;50.498;8.474;2022-10-28T11:15:03;21.27;72.54
12907;DHT22;6521;50.498;8.474;2022-10-28T11:17:34;21.14;73.20
12907;DHT22;6521;50.498;8.474;2022-10-28T11:20:50;21.08;74.04
12907;DHT22;6521;50.498;8.474;2022-10-28T11:23:50;20.99;74.02
12907;DHT22;6521;50.498;8.474;2022-10-28T11:26:23;20.97;74.26
12907;DHT22;6521;50.498;8.474;2022-10-28T11:35:38;22.35;70.73
12907;DHT22;6521;50.498;8.474;2022-10-28T11:38:11;22.88;69.96
12907;DHT22;6521;50.498;8.474;2022-10-28T11:41:27;23.33;68.20
12907;DHT22;6521;50.498;8.474;2022-10-28T11:44:04;23.74;66.68
12907;DHT22;6521;50.498;8.474;2022-10-28T11:46:51;23.92;65.89
12907;DHT22;6521;50.498;8.474;2022-10-28T11:55:34;23.38;66.19
12907;DHT22;6521;50.498;8.474;2022-10-28T11:58:32;23.18;67.10
12907;DHT22;6521;50.498;8.474;2022-10-28T12:01:38;23.01;67.59
12907;DHT22;6521;50.498;8.474;2022-10-28T12:04:21;23.02;67.90
12907;DHT22;6521;50.498;8.474;2022-10-28T12:07:12;22.91;68.02
12907;DHT22;6521;50.498;8.474;2022-10-28T12:12:52;23.18;68.02
12907;DHT22;6521;50.498;8.474;2022-10-28T12:15:43;23.43;67.39
12907;DHT22;6521;50.498;8.474;2022-10-28T12:18:19;23.66;66.55
12907;DHT22;6521;50.498;8.474;2022-10-28T12:23:34;23.90;65.25
12907;DHT22;6521;50.498;8.474;2022-10-28T12:26:10;23.90;65.22
12907;DHT22;6521;50.498;8.474;2022-10-28T12:28:47;23.94;64.87
12907;DHT22;6521;50.498;8.474;2022-10-28T12:31:24;24.14;64.07
12907;DHT22;6521;50.498;8.474;2022-10-28T12:34:04;24.32;63.76
12907;DHT22;6521;50.498;8.474;2022-10-28T12:36:40;24.49;63.14
12907;DHT22;6521;50.498;8.474;2022-10-28T12:39:27;24.54;62.49
12907;DHT22;6521;50.498;8.474;2022-10-28T12:42:20;24.66;61.79
12907;DHT22;6521;50.498;8.474;2022-10-28T12:44:56;24.68;60.95
12907;DHT22;6521;50.498;8.474;2022-10-28T12:47:38;24.69;60.92
12907;DHT22;6521;50.498;8.474;2022-10-28T12:50:33;24.82;59.09
12907;DHT22;6521;50.498;8.474;2022-10-28T12:53:29;24.93;57.43
12907;DHT22;6521;50.498;8.474;2022-10-28T12:56:05;24.95;56.59
12907;DHT22;6521;50.498;8.474;2022-10-28T13:01:34;24.47;47.69
12907;DHT22;6521;50.498;8.474;2022-10-28T13:04:10;24.29;50.18
12907;DHT22;6521;50.498;8.474;2022-10-28T13:07:10;24.06;49.59
12907;DHT22;6521;50.498;8.474;2022-10-28T13:09:56;23.81;49.72
12907;DHT22;6521;50.498;8.474;2022-10-28T13:18:27;23.66;48.89
12907;DHT22;6521;50.498;8.474;2022-10-28T13:28:56;23.19;51.32
12907;DHT22;6521;50.498;8.474;2022-10-28T13:31:46;23.28;49.71
12907;DHT22;6521;50.498;8.474;2022-10-28T13:34:20;23.42;50.90
12907;DHT22;6521;50.498;8.474;2022-10-28T13:36:55;23.43;51.13
12907;DHT22;6521;50.498;8.474;2022-10-28T13:44:55;23.35;50.26
12907;DHT22;6521;50.498;8.474;2022-10-28T13:47:34;23.22;50.68
12907;DHT22;6521;50.498;8.474;2022-10-28T13:50:07;23.14;51.56
12907;DHT22;6521;50.498;8.474;2022-10-28T13:52:46;23.16;51.73
12907;DHT22;6521;50.498;8.474;2022-10-28T13:55:43;23.08;52.30
12907;DHT22;6521;50.498;8.474;2022-10-28T13:58:20;23.08;51.90
12907;DHT22;6521;50.498;8.474;2022-10-28T14:00:52;23.01;51.81
12907;DHT22;6521;50.498;8.474;2022-10-28T14:03:25;22.95;53.40
12907;DHT22;6521;50.498;8.474;2022-10-28T14:05:57;22.83;54.87
12907;DHT22;6521;50.498;8.474;2022-10-28T14:08:32;22.73;55.67
12907;DHT22;6521;50.498;8.474;2022-10-28T14:13:46;22.49;54.72
12907;DHT22;6521;50.498;8.474;2022-10-28T14:19:19;22.22;55.42
12907;DHT22;6521;50.498;8.474;2022-10-28T14:24:39;21.98;56.60
12907;DHT22;6521;50.498;8.474;2022-10-28T14:40:55;22.54;55.08
12907;DHT22;6521;50.498;8.474;2022-10-28T14:43:48;22.49;54.78
12907;DHT22;6521;50.498;8.474;2022-10-28T14:46:27;22.39;55.32
12907;DHT22;6521;50.498;8.474;2022-10-28T14:48:59;22.29;55.08
12907;DHT22;6521;50.498;8.474;2022-10-28T14:51:38;22.26;56.77
12907;DHT22;6521;50.498;8.474;2022-10-28T14:54:19;22.12;57.62
12907;DHT22;6521;50.498;8.474;2022-10-28T14:56:55;22.06;56.97
12907;DHT22;6521;50.498;8.474;2022-10-28T14:59:32;21.92;56.16
12907;DHT22;6521;50.498;8.474;2022-10-28T15:02:10;21.81;56.60
12907;DHT22;6521;50.498;8.474;2022-10-28T15:04:43;21.72;57.93
12907;DHT22;6521;50.498;8.474;2022-10-28T15:07:17;21.62;57.51
12907;DHT22;6521;50.498;8.474;2022-10-28T15:09:48;21.50;58.97
12907;DHT22;6521;50.498;8.474;2022-10-28T15:12:23;21.40;58.23
12907;DHT22;6521;50.498;8.474;2022-10-28T15:14:59;21.33;58.49
12907;DHT22;6521;50.498;8.474;2022-10-28T15:17:36;21.27;57.91
12907;DHT22;6521;50.498;8.474;2022-10-28T15:20:29;21.22;58.37
12907;DHT22;6521;50.498;8.474;2022-10-28T15:23:16;21.16;58.37
12907;DHT22;6521;50.498;8.474;2022-10-28T15:26:06;21.07;59.08
12907;DHT22;6521;50.498;8.474;2022-10-28T15:28:38;20.93;59.48
12907;DHT22;6521;50.498;8.474;2022-10-28T15:31:09;20.86;59.77
12907;DHT22;6521;50.498;8.474;2022-10-28T15:33:41;20.75;60.79
12907;DHT22;6521;50.498;8.474;2022-10-28T15:36:20;20.58;62.43
12907;DHT22;6521;50.498;8.474;2022-10-28T15:39:05;20.37;63.34
12907;DHT22;6521;50.498;8.474;2022-10-28T15:41:40;20.18;64.53
12907;DHT22;6521;50.498;8.474;2022-10-28T15:44:33;19.98;65.83
12907;DHT22;6521;50.498;8.474;2022-10-28T15:47:35;19.97;63.81
12907;DHT22;6521;50.498;8.474;2022-10-28T15:52:47;19.87;64.05
12907;DHT22;6521;50.498;8.474;2022-10-28T15:55:25;19.80;63.75
12907;DHT22;6521;50.498;8.474;2022-10-28T16:00:50;19.70;64.66
12907;DHT22;6521;50.498;8.474;2022-10-28T16:06:25;19.36;66.19
12907;DHT22;6521;50.498;8.474;2022-10-28T16:09:03;19.26;66.11
12907;DHT22;6521;50.498;8.474;2022-10-28T16:11:35;19.18;66.69
12907;DHT22;6521;50.498;8.474;2022-10-28T16:14:38;19.15;65.87
12907;DHT22;6521;50.498;8.474;2022-10-28T16:17:28;19.14;66.13
12907;DHT22;6521;50.498;8.474;2022-10-28T16:20:02;19.14;65.84
12907;DHT22;6521;50.498;8.474;2022-10-28T16:22:34;19.14;66.21
12907;DHT22;6521;50.498;8.474;2022-10-28T16:25:14;19.12;65.96
12907;DHT22;6521;50.498;8.474;2022-10-28T16:27:46;19.14;65.83
12907;DHT22;6521;50.498;8.474;2022-10-28T16:30:17;19.12;65.87
12907;DHT22;6521;50.498;8.474;2022-10-28T16:32:48;19.05;66.36
12907;DHT22;6521;50.498;8.474;2022-10-28T16:35:21;18.87;67.25
12907;DHT22;6521;50.498;8.474;2022-10-28T16:37:52;18.70;67.93
12907;DHT22;6521;50.498;8.474;2022-10-28T16:40:23;18.57;68.10
12907;DHT22;6521;50.498;8.474;2022-10-28T16:42:54;18.50;68.51
12907;DHT22;6521;50.498;8.474;2022-10-28T16:45:25;18.40;69.12
12907;DHT22;6521;50.498;8.474;2022-10-28T16:47:56;18.28;69.77
12907;DHT22;6521;50.498;8.474;2022-10-28T16:50:27;18.19;70.00
12907;DHT22;6521;50.498;8.474;2022-10-28T16:52:57;18.12;70.01
12907;DHT22;6521;50.498;8.474;2022-10-28T16:55:28;18.08;70.32
12907;DHT22;6521;50.498;8.474;2022-10-28T16:57:59;17.96;70.61
12907;DHT22;6521;50.498;8.474;2022-10-28T17:00:29;17.85;71.83
12907;DHT22;6521;50.498;8.474;2022-10-28T17:03:00;17.71;71.82
12907;DHT22;6521;50.498;8.474;2022-10-28T17:05:56;17.57;72.53
12907;DHT22;6521;50.498;8.474;2022-10-28T17:08:27;17.41;73.09
12907;DHT22;6521;50.498;8.474;2022-10-28T17:10:58;17.28;73.82
12907;DHT22;6521;50.498;8.474;2022-10-28T17:13:30;17.17;74.12
12907;DHT22;6521;50.498;8.474;2022-10-28T17:16:00;17.12;74.65
12907;DHT22;6521;50.498;8.474;2022-10-28T17:18:31;17.04;74.87
12907;DHT22;6521;50.498;8.474;2022-10-28T17:21:02;17.04;74.70
12907;DHT22;6521;50.498;8.474;2022-10-28T17:23:33;17.13;74.59
12907;DHT22;6521;50.498;8.474;2022-10-28T17:26:04;17.24;74.25
12907;DHT22;6521;50.498;8.474;2022-10-28T17:28:35;17.30;74.06
12907;DHT22;6521;50.498;8.474;2022-10-28T17:31:07;17.38;73.80
12907;DHT22;6521;50.498;8.474;2022-10-28T17:33:38;17.37;73.75
12907;DHT22;6521;50.498;8.474;2022-10-28T17:36:08;17.50;73.49
12907;DHT22;6521;50.498;8.474;2022-10-28T17:38:39;17.58;73.29
12907;DHT22;6521;50.498;8.474;2022-10-28T17:41:10;17.70;72.88
12907;DHT22;6521;50.498;8.474;2022-10-28T17:43:40;17.74;72.63
12907;DHT22;6521;50.498;8.474;2022-10-28T17:46:12;17.74;72.66
12907;DHT22;6521;50.498;8.474;2022-10-28T17:48:42;17.78;72.57
12907;DHT22;6521;50.498;8.474;2022-10-28T17:51:13;17.88;72.34
12907;DHT22;6521;50.498;8.474;2022-10-28T17:53:44;17.85;72.36
12907;DHT22;6521;50.498;8.474;2022-10-28T17:56:15;17.91;72.33
12907;DHT22;6521;50.498;8.474;2022-10-28T17:58:46;17.85;72.63
12907;DHT22;6521;50.498;8.474;2022-10-28T18:01:17;17.84;72.79
12907;DHT22;6521;50.498;8.474;2022-10-28T18:03:48;17.91;72.47
12907;DHT22;6521;50.498;8.474;2022-10-28T18:06:19;17.95;72.40
12907;DHT22;6521;50.498;8.474;2022-10-28T18:08:50;18.01;72.02
12907;DHT22;6521;50.498;8.474;2022-10-28T18:11:21;18.03;72.05
12907;DHT22;6521;50.498;8.474;2022-10-28T18:13:51;18.03;72.13
12907;DHT22;6521;50.498;8.474;2022-10-28T18:16:25;18.08;71.96
12907;DHT22;6521;50.498;8.474;2022-10-28T18:19:01;18.12;71.61
12907;DHT22;6521;50.498;8.474;2022-10-28T18:21:32;18.19;71.19
12907;DHT22;6521;50.498;8.474;2022-10-28T18:24:04;18.26;70.95
12907;DHT22;6521;50.498;8.474;2022-10-28T18:26:36;18.32;70.66
12907;DHT22;6521;50.498;8.474;2022-10-28T18:29:08;18.29;70.57
12907;DHT22;6521;50.498;8.474;2022-10-28T18:31:43;18.36;70.27
12907;DHT22;6521;50.498;8.474;2022-10-28T18:34:13;18.36;70.18
12907;DHT22;6521;50.498;8.474;2022-10-28T18:36:44;18.40;70.02
12907;DHT22;6521;50.498;8.474;2022-10-28T18:39:15;18.39;70.10
12907;DHT22;6521;50.498;8.474;2022-10-28T18:41:46;18.36;70.11
12907;DHT22;6521;50.498;8.474;2022-10-28T18:44:17;18.37;69.95
12907;DHT22;6521;50.498;8.474;2022-10-28T18:46:51;18.36;70.07
12907;DHT22;6521;50.498;8.474;2022-10-28T18:49:21;18.26;70.35
12907;DHT22;6521;50.498;8.474;2022-10-28T18:51:52;18.23;70.40
12907;DHT22;6521;50.498;8.474;2022-10-28T18:54:23;18.20;70.43